Time;durP1;ratioP1;P1;durP2;ratioP2;P2;SDS_P1;SDS_P2;PMS_P1;PMS_P2;Temp;Humidity;BMP_temperature;BMP_pressure;BME280_temperature;BME280_humidity;BME280_pressure;Samples;Min_cycle;Max_cycle;Signal;HPM_P1;HPM_P2
2023/05/20 00:00:09;;;;;;;6.40;2.80;;;13.90;82.30;;;;;;6181822;23;20060;-68
2023/05/20 00:02:34;;;;;;;6.05;3.17;;;13.80;82.60;;;;;;6181341;23;20028;-68
2023/05/20 00:05:00;;;;;;;4.60;2.63;;;13.80;82.70;;;;;;6181643;23;20033;-69
2023/05/20 00:07:26;;;;;;;4.15;2.38;;;13.70;82.90;;;;;;6181531;23;20450;-69
2023/05/20 00:09:51;;;;;;;4.70;2.60;;;13.70;83.10;;;;;;6181400;23;20009;-69
2023/05/20 00:12:17;;;;;;;5.20;2.90;;;13.70;83.30;;;;;;6182685;23;20493;-68
2023/05/20 00:14:42;;;;;;;4.75;2.80;;;13.60;83.50;;;;;;6180886;23;20010;-68
2023/05/20 00:17:08;;;;;;;3.95;2.67;;;13.60;83.60;;;;;;6156394;23;20374;-63
2023/05/20 00:19:34;;;;;;;5.22;2.85;;;13.60;83.90;;;;;;6180747;23;20324;-61
2023/05/20 00:22:00;;;;;;;8.10;2.95;;;13.50;83.90;;;;;;6181064;23;20096;-62
2023/05/20 00:24:26;;;;;;;5.38;2.40;;;13.50;84.10;;;;;;6179670;23;20072;-62
2023/05/20 00:26:51;;;;;;;3.78;2.40;;;13.50;84.50;;;;;;6182061;23;20005;-62
2023/05/20 00:29:17;;;;;;;7.88;3.50;;;13.40;84.60;;;;;;6180654;23;20009;-62
2023/05/20 00:31:43;;;;;;;4.05;2.40;;;13.50;84.80;;;;;;6181904;23;20008;-61
2023/05/20 00:34:08;;;;;;;6.82;2.90;;;13.40;85.00;;;;;;6180682;23;20016;-62
2023/05/20 00:36:34;;;;;;;6.18;3.22;;;13.40;85.20;;;;;;6182514;23;20009;-61
2023/05/20 00:39:00;;;;;;;5.43;3.28;;;13.30;85.70;;;;;;6180816;23;20013;-63
2023/05/20 00:41:26;;;;;;;4.78;2.90;;;13.30;85.80;;;;;;6181712;23;20028;-62
2023/05/20 00:43:55;;;;;;;4.72;2.53;;;13.20;86.10;;;;;;6180565;23;20047;-62
2023/05/20 00:46:22;;;;;;;5.22;3.47;;;13.30;86.40;;;;;;6180045;23;20013;-62
2023/05/20 00:48:49;;;;;;;7.30;3.00;;;13.20;86.50;;;;;;6180424;23;20402;-62
2023/05/20 00:51:15;;;;;;;4.85;2.53;;;13.10;87.20;;;;;;6181625;23;20005;-62
2023/05/20 00:53:42;;;;;;;5.10;2.50;;;13.10;87.10;;;;;;6179675;23;20017;-62
2023/05/20 00:56:08;;;;;;;3.55;2.40;;;13.10;87.40;;;;;;6181242;23;20009;-68
2023/05/20 00:58:37;;;;;;;5.25;2.80;;;13.00;87.60;;;;;;6154339;23;20320;-67
2023/05/20 01:01:03;;;;;;;7.10;3.30;;;13.00;88.00;;;;;;6179760;23;20028;-65
2023/05/20 01:03:29;;;;;;;7.75;3.00;;;13.00;88.20;;;;;;6180924;23;20501;-65
2023/05/20 01:05:55;;;;;;;4.85;2.85;;;12.90;88.40;;;;;;6153295;23;20009;-65
2023/05/20 01:08:22;;;;;;;6.90;3.22;;;12.90;88.70;;;;;;6180191;23;20020;-66
2023/05/20 01:10:53;;;;;;;5.97;2.42;;;12.90;88.90;;;;;;6181681;23;20088;-66
2023/05/20 01:13:21;;;;;;;5.07;3.42;;;12.90;89.20;;;;;;6181400;23;20089;-65
2023/05/20 01:15:48;;;;;;;4.75;2.95;;;12.90;89.50;;;;;;6154769;23;20116;-64
2023/05/20 01:18:19;;;;;;;6.28;3.03;;;12.90;90.00;;;;;;6180224;23;20382;-65
2023/05/20 01:20:49;;;;;;;6.18;3.25;;;12.80;89.80;;;;;;6180706;23;20071;-65
2023/05/20 01:23:16;;;;;;;6.03;3.15;;;12.80;90.10;;;;;;6178892;23;20367;-65
2023/05/20 01:25:41;;;;;;;4.10;2.78;;;12.80;90.10;;;;;;6179146;23;20012;-64
2023/05/20 01:28:08;;;;;;;4.57;2.65;;;12.70;90.20;;;;;;6180986;23;20613;-65
2023/05/20 01:30:38;;;;;;;5.80;3.00;;;12.70;90.30;;;;;;6154554;23;20005;-64
2023/05/20 01:33:10;;;;;;;6.20;3.10;;;12.70;90.50;;;;;;6152920;23;20013;-63
2023/05/20 01:35:36;;;;;;;6.22;3.33;;;12.70;90.70;;;;;;6182228;23;20008;-64
2023/05/20 01:38:05;;;;;;;5.30;3.17;;;12.70;90.70;;;;;;6181102;23;20004;-64
2023/05/20 01:40:33;;;;;;;4.68;2.85;;;12.60;90.80;;;;;;6180384;23;20012;-64
2023/05/20 01:43:01;;;;;;;4.43;3.00;;;12.70;90.90;;;;;;6180988;23;20013;-65
2023/05/20 01:45:27;;;;;;;6.10;3.08;;;12.70;91.00;;;;;;6180983;23;20025;-65
2023/05/20 01:47:52;;;;;;;4.75;3.00;;;12.70;91.10;;;;;;6180503;23;20020;-65
2023/05/20 01:50:18;;;;;;;7.38;4.18;;;12.70;91.20;;;;;;6154074;23;20005;-66
2023/05/20 01:52:43;;;;;;;4.68;3.20;;;12.60;91.20;;;;;;6180848;23;20006;-64
2023/05/20 01:55:09;;;;;;;5.65;3.25;;;12.60;91.30;;;;;;6181317;23;20457;-64
2023/05/20 01:57:35;;;;;;;6.55;3.47;;;12.60;91.60;;;;;;6180288;23;20013;-64
2023/05/20 02:00:00;;;;;;;6.03;3.60;;;12.60;91.70;;;;;;6181782;23;20084;-64
2023/05/20 02:02:26;;;;;;;4.80;3.20;;;12.60;91.70;;;;;;6180571;23;20005;-64
2023/05/20 02:04:53;;;;;;;3.85;3.25;;;12.60;91.90;;;;;;6180982;23;20035;-63
2023/05/20 02:07:19;;;;;;;5.03;3.10;;;12.50;92.10;;;;;;6180234;23;20304;-64
2023/05/20 02:09:45;;;;;;;4.53;3.10;;;12.50;92.10;;;;;;6180966;23;20084;-67
2023/05/20 02:12:15;;;;;;;5.07;3.15;;;12.50;92.20;;;;;;6154247;23;20048;-66
2023/05/20 02:14:44;;;;;;;8.70;3.33;;;12.50;92.30;;;;;;6181272;23;20009;-65
2023/05/20 02:17:10;;;;;;;4.63;3.20;;;12.50;92.30;;;;;;6155624;23;20016;-66
2023/05/20 02:19:36;;;;;;;4.82;2.97;;;12.50;92.50;;;;;;6182305;23;20426;-67
2023/05/20 02:22:01;;;;;;;3.83;2.72;;;12.50;92.50;;;;;;6181760;23;20009;-66
2023/05/20 02:24:27;;;;;;;4.75;3.20;;;12.40;92.60;;;;;;6181916;23;20067;-66
2023/05/20 02:26:54;;;;;;;5.18;2.97;;;12.40;92.60;;;;;;6155817;23;20293;-66
2023/05/20 02:29:21;;;;;;;6.03;3.38;;;12.40;92.70;;;;;;6183317;23;20308;-66
2023/05/20 02:31:47;;;;;;;6.18;3.25;;;12.40;92.80;;;;;;6155479;23;20020;-66
2023/05/20 02:34:14;;;;;;;5.93;3.00;;;12.40;92.80;;;;;;6182677;23;20264;-66
2023/05/20 02:36:41;;;;;;;6.90;4.13;;;12.40;92.90;;;;;;6182448;23;20015;-66
2023/05/20 02:39:06;;;;;;;5.55;3.50;;;12.40;93.00;;;;;;6182836;23;20400;-63
2023/05/20 02:41:32;;;;;;;5.15;3.08;;;12.40;93.00;;;;;;6181819;23;20055;-63
2023/05/20 02:43:58;;;;;;;8.30;3.63;;;12.40;93.10;;;;;;6180745;23;20027;-64
2023/05/20 02:46:23;;;;;;;5.18;3.20;;;12.40;93.20;;;;;;6181939;23;20097;-62
2023/05/20 02:48:49;;;;;;;5.47;3.33;;;12.40;93.30;;;;;;6182080;23;20016;-62
2023/05/20 02:51:14;;;;;;;5.28;3.10;;;12.40;93.70;;;;;;6182826;23;20009;-67
2023/05/20 02:53:40;;;;;;;4.90;3.20;;;12.40;93.50;;;;;;6182636;23;20035;-68
2023/05/20 02:56:07;;;;;;;5.43;3.30;;;12.40;93.50;;;;;;6183120;23;20043;-67
2023/05/20 02:58:34;;;;;;;6.68;3.40;;;12.40;93.60;;;;;;6183071;23;20013;-67
2023/05/20 03:01:00;;;;;;;5.18;3.30;;;12.50;93.70;;;;;;6181982;23;20335;-67
2023/05/20 03:03:26;;;;;;;5.25;3.45;;;12.50;93.70;;;;;;6182810;23;20021;-67
2023/05/20 03:05:52;;;;;;;6.85;3.03;;;12.50;93.70;;;;;;6182552;23;20370;-68
2023/05/20 03:08:21;;;;;;;7.63;3.30;;;12.50;93.80;;;;;;6182587;23;20009;-62
2023/05/20 03:10:46;;;;;;;6.57;3.33;;;12.50;94.10;;;;;;6183012;23;20419;-62
2023/05/20 03:13:14;;;;;;;5.10;3.30;;;12.50;93.90;;;;;;6180521;23;20084;-62
2023/05/20 03:15:40;;;;;;;4.68;3.33;;;12.50;93.90;;;;;;6156788;23;20001;-62
2023/05/20 03:18:07;;;;;;;4.32;3.05;;;12.50;94.00;;;;;;6182567;23;20015;-63
2023/05/20 03:20:37;;;;;;;7.03;4.32;;;12.60;94.00;;;;;;6182710;23;20028;-62
2023/05/20 03:23:03;;;;;;;8.07;3.67;;;12.60;94.00;;;;;;6154167;23;20021;-61
2023/05/20 03:25:29;;;;;;;7.85;3.38;;;12.60;94.10;;;;;;6181803;23;20398;-61
2023/05/20 03:27:57;;;;;;;6.10;3.30;;;12.60;94.10;;;;;;6180722;23;20008;-62
2023/05/20 03:30:23;;;;;;;6.00;3.08;;;12.60;94.10;;;;;;6181927;23;20029;-62
2023/05/20 03:32:48;;;;;;;7.25;3.08;;;12.60;94.10;;;;;;6182357;23;20005;-61
2023/05/20 03:35:14;;;;;;;6.78;3.83;;;12.70;94.10;;;;;;6155664;23;20028;-67
2023/05/20 03:37:40;;;;;;;4.55;3.25;;;12.70;94.10;;;;;;6182396;23;20016;-67
2023/05/20 03:40:09;;;;;;;6.15;3.50;;;12.70;94.20;;;;;;6181980;23;20392;-67
2023/05/20 03:42:35;;;;;;;7.35;3.38;;;12.80;94.30;;;;;;6182189;23;20005;-66
2023/05/20 03:45:00;;;;;;;6.63;3.45;;;12.70;94.20;;;;;;6181871;23;20039;-66
2023/05/20 03:47:27;;;;;;;7.10;3.28;;;12.70;94.20;;;;;;6181909;23;20099;-62
2023/05/20 03:49:53;;;;;;;7.90;3.47;;;12.70;94.20;;;;;;6182279;23;20451;-63
2023/05/20 03:52:19;;;;;;;4.68;3.20;;;12.70;94.30;;;;;;6180525;23;20059;-62
2023/05/20 03:54:45;;;;;;;7.75;4.03;;;12.80;94.30;;;;;;6182615;23;20055;-62
2023/05/20 03:57:10;;;;;;;7.78;3.65;;;12.80;94.30;;;;;;6181072;23;20085;-62
2023/05/20 03:59:36;;;;;;;8.23;3.97;;;12.80;94.30;;;;;;6181913;23;20353;-62
2023/05/20 04:02:02;;;;;;;5.22;2.90;;;12.80;94.40;;;;;;6180298;23;20005;-62
2023/05/20 04:04:29;;;;;;;5.25;3.45;;;12.80;94.40;;;;;;6183110;23;20017;-67
2023/05/20 04:06:55;;;;;;;6.35;3.55;;;12.80;94.40;;;;;;6182153;23;20005;-67
2023/05/20 04:09:21;;;;;;;5.78;3.05;;;12.80;94.50;;;;;;6154183;23;20013;-67
2023/05/20 04:11:47;;;;;;;8.18;3.38;;;12.80;94.50;;;;;;6182199;23;20423;-67
2023/05/20 04:14:13;;;;;;;5.95;3.47;;;12.80;94.50;;;;;;6155065;23;20013;-67
2023/05/20 04:16:38;;;;;;;7.88;3.30;;;12.80;94.50;;;;;;6182246;23;20009;-67
2023/05/20 04:19:04;;;;;;;7.28;3.70;;;12.90;94.60;;;;;;6181475;23;20013;-66
2023/05/20 04:21:30;;;;;;;7.80;4.00;;;12.80;94.60;;;;;;6179036;23;20016;-66
2023/05/20 04:23:56;;;;;;;6.95;3.90;;;12.90;94.60;;;;;;6153910;23;20501;-66
2023/05/20 04:26:21;;;;;;;10.80;4.32;;;12.90;94.60;;;;;;6181577;23;20033;-66
2023/05/20 04:28:48;;;;;;;6.30;3.75;;;12.90;94.70;;;;;;6181633;23;20009;-67
2023/05/20 04:31:14;;;;;;;6.38;3.80;;;12.90;94.70;;;;;;6181332;23;20417;-66
2023/05/20 04:33:40;;;;;;;6.10;3.95;;;12.90;94.80;;;;;;6181545;23;20309;-62
2023/05/20 04:36:08;;;;;;;6.05;3.72;;;12.90;94.80;;;;;;6182220;23;20002;-65
2023/05/20 04:38:34;;;;;;;7.43;3.85;;;12.90;94.90;;;;;;6180587;23;20039;-67
2023/05/20 04:41:01;;;;;;;4.72;3.10;;;12.90;94.90;;;;;;6153865;23;20559;-62
2023/05/20 04:43:28;;;;;;;7.20;3.70;;;12.90;94.90;;;;;;6153813;23;20025;-69
2023/05/20 04:45:58;;;;;;;7.13;3.80;;;13.00;95.00;;;;;;6182284;23;20009;-70
2023/05/20 04:48:24;;;;;;;7.22;3.58;;;13.00;95.00;;;;;;6180905;23;20033;-69
2023/05/20 04:50:53;;;;;;;6.63;3.95;;;13.00;95.00;;;;;;6182652;23;20009;-69
2023/05/20 04:53:20;;;;;;;5.50;3.95;;;13.00;95.10;;;;;;6181311;23;20005;-69
2023/05/20 04:55:46;;;;;;;6.57;3.83;;;13.00;95.10;;;;;;6182029;23;20011;-69
2023/05/20 04:58:14;;;;;;;8.40;4.32;;;13.00;95.30;;;;;;6179818;23;20044;-71
2023/05/20 05:00:44;;;;;;;6.25;3.75;;;13.00;95.20;;;;;;6154077;23;20371;-69
2023/05/20 05:03:11;;;;;;;8.88;4.90;;;13.00;95.30;;;;;;6180349;23;20017;-68
2023/05/20 05:05:38;;;;;;;10.02;3.92;;;13.00;95.30;;;;;;6180840;23;20009;-68
2023/05/20 05:08:04;;;;;;;6.35;3.60;;;13.00;95.30;;;;;;6181544;23;20380;-68
2023/05/20 05:10:30;;;;;;;8.05;4.25;;;13.00;95.40;;;;;;6181016;23;20348;-67
2023/05/20 05:12:56;;;;;;;8.75;4.05;;;13.00;95.40;;;;;;6180513;23;20020;-68
2023/05/20 05:15:22;;;;;;;9.00;4.40;;;12.90;95.50;;;;;;6181016;23;20009;-70
2023/05/20 05:17:48;;;;;;;8.27;3.90;;;13.00;95.70;;;;;;6179029;23;20013;-70
2023/05/20 05:20:13;;;;;;;11.57;4.22;;;13.00;95.70;;;;;;6180450;23;20056;-70
2023/05/20 05:22:40;;;;;;;6.35;3.55;;;13.00;95.80;;;;;;6180174;23;20080;-70
2023/05/20 05:25:07;;;;;;;12.50;4.43;;;13.00;95.80;;;;;;6181328;23;20008;-71
2023/05/20 05:27:34;;;;;;;7.63;4.25;;;13.00;95.90;;;;;;6153896;23;20009;-69
2023/05/20 05:30:00;;;;;;;7.15;4.07;;;13.00;95.90;;;;;;6181169;23;20470;-69
2023/05/20 05:32:25;;;;;;;5.75;4.07;;;13.00;96.00;;;;;;6180601;23;20447;-70
2023/05/20 05:34:51;;;;;;;6.22;4.00;;;13.10;96.00;;;;;;6180719;23;20009;-69
2023/05/20 05:37:16;;;;;;;6.32;4.15;;;13.10;96.10;;;;;;6180227;23;20084;-70
2023/05/20 05:39:42;;;;;;;8.30;4.18;;;13.10;96.10;;;;;;6178696;23;20012;-70
2023/05/20 05:42:08;;;;;;;8.07;4.03;;;13.20;96.20;;;;;;6180203;23;20443;-70
2023/05/20 05:44:34;;;;;;;11.40;4.20;;;13.20;96.20;;;;;;6179065;23;20036;-70
2023/05/20 05:46:59;;;;;;;6.38;4.53;;;13.20;96.20;;;;;;6180185;23;20370;-70
2023/05/20 05:49:25;;;;;;;8.68;4.32;;;13.20;96.30;;;;;;6182065;23;20577;-70
2023/05/20 05:51:51;;;;;;;10.40;5.05;;;13.30;96.30;;;;;;6182130;23;20009;-70
2023/05/20 05:54:16;;;;;;;8.73;4.25;;;13.30;96.40;;;;;;6182723;23;20091;-70
2023/05/20 05:56:42;;;;;;;6.97;4.15;;;13.40;96.40;;;;;;6181526;23;20004;-70
2023/05/20 05:59:08;;;;;;;8.38;4.60;;;13.40;96.40;;;;;;6183615;23;20382;-61
2023/05/20 06:01:33;;;;;;;5.57;3.65;;;13.50;96.50;;;;;;6182702;23;20001;-61
2023/05/20 06:03:59;;;;;;;7.05;4.85;;;13.50;96.40;;;;;;6180944;23;20021;-61
2023/05/20 06:06:25;;;;;;;8.23;4.50;;;13.60;96.40;;;;;;6181458;23;20001;-61
2023/05/20 06:08:51;;;;;;;6.95;4.40;;;13.60;96.40;;;;;;6182419;23;20093;-61
2023/05/20 06:11:16;;;;;;;7.20;4.05;;;13.60;96.50;;;;;;6182486;23;20052;-61
2023/05/20 06:13:42;;;;;;;8.07;4.72;;;13.60;96.50;;;;;;6156000;23;20027;-61
2023/05/20 06:16:07;;;;;;;7.05;4.25;;;13.60;96.50;;;;;;6182692;23;20029;-60
2023/05/20 06:18:33;;;;;;;8.07;4.95;;;13.60;96.50;;;;;;6182908;23;20097;-60
2023/05/20 06:20:59;;;;;;;9.52;4.20;;;13.70;96.50;;;;;;6180938;23;20144;-61
2023/05/20 06:23:25;;;;;;;7.28;4.75;;;13.70;96.60;;;;;;6181737;23;20502;-61
2023/05/20 06:25:51;;;;;;;8.25;4.50;;;13.60;96.60;;;;;;6182261;23;20013;-61
2023/05/20 06:28:17;;;;;;;7.65;4.65;;;13.70;96.60;;;;;;6182811;23;20103;-61
2023/05/20 06:30:43;;;;;;;8.85;4.78;;;13.70;96.70;;;;;;6183154;23;20384;-61
2023/05/20 06:33:08;;;;;;;8.07;4.07;;;13.80;96.70;;;;;;6155280;23;20012;-61
2023/05/20 06:35:34;;;;;;;9.82;4.70;;;13.90;96.70;;;;;;6183295;23;20008;-60
2023/05/20 06:38:00;;;;;;;10.35;4.57;;;13.90;96.80;;;;;;6156638;23;20697;-60
2023/05/20 06:40:26;;;;;;;9.52;5.00;;;13.90;96.60;;;;;;6155172;23;20005;-60
2023/05/20 06:42:52;;;;;;;7.85;5.30;;;13.90;96.60;;;;;;6182650;23;20013;-61
2023/05/20 06:45:18;;;;;;;7.20;4.68;;;13.90;96.60;;;;;;6181849;23;20035;-71
2023/05/20 06:47:44;;;;;;;7.10;4.63;;;13.90;96.60;;;;;;6181567;23;20043;-71
2023/05/20 06:50:10;;;;;;;5.95;4.20;;;14.00;96.60;;;;;;6154316;23;20553;-70
2023/05/20 06:52:36;;;;;;;8.27;4.65;;;14.00;96.60;;;;;;6181792;23;20013;-71
2023/05/20 06:55:05;;;;;;;6.53;4.28;;;14.10;96.60;;;;;;6182323;23;20079;-72
2023/05/20 06:57:31;;;;;;;7.30;5.07;;;14.10;96.60;;;;;;6182306;23;20017;-61
2023/05/20 06:59:56;;;;;;;7.85;4.15;;;14.10;96.60;;;;;;6182574;23;20438;-61
2023/05/20 07:02:22;;;;;;;9.48;4.72;;;14.20;96.60;;;;;;6181474;23;20009;-61
2023/05/20 07:04:48;;;;;;;8.77;4.50;;;14.20;96.60;;;;;;6180665;23;20020;-61
2023/05/20 07:07:14;;;;;;;6.97;4.43;;;14.30;96.60;;;;;;6181501;23;20422;-61
2023/05/20 07:09:39;;;;;;;7.65;5.00;;;14.40;96.80;;;;;;6182235;23;20060;-61
2023/05/20 07:12:06;;;;;;;7.85;4.60;;;14.50;96.60;;;;;;6182887;23;20100;-61
2023/05/20 07:14:31;;;;;;;5.88;4.25;;;14.60;96.60;;;;;;6182665;23;20016;-61
2023/05/20 07:16:57;;;;;;;8.77;5.10;;;14.70;96.50;;;;;;6182228;23;20009;-59
2023/05/20 07:19:22;;;;;;;6.43;4.05;;;14.80;96.30;;;;;;6182478;23;20037;-61
2023/05/20 07:21:48;;;;;;;8.75;4.20;;;14.80;96.10;;;;;;6182990;23;20016;-61
2023/05/20 07:24:17;;;;;;;6.45;4.43;;;14.90;96.20;;;;;;6181555;23;20229;-71
2023/05/20 07:26:43;;;;;;;6.47;4.25;;;14.90;96.10;;;;;;6182052;23;20005;-73
2023/05/20 07:29:09;;;;;;;7.50;4.35;;;15.00;96.00;;;;;;6181790;23;20474;-70
2023/05/20 07:31:34;;;;;;;7.53;4.55;;;15.10;95.90;;;;;;6181023;23;20473;-71
2023/05/20 07:34:01;;;;;;;10.80;4.43;;;15.10;95.90;;;;;;6179189;23;20044;-70
2023/05/20 07:36:27;;;;;;;8.68;4.55;;;15.10;95.80;;;;;;6181366;23;20009;-70
2023/05/20 07:38:53;;;;;;;6.45;3.67;;;15.20;95.70;;;;;;6182015;23;20012;-68
2023/05/20 07:41:20;;;;;;;7.00;4.20;;;15.20;95.60;;;;;;6181905;23;20446;-69
2023/05/20 07:43:45;;;;;;;6.38;4.10;;;15.20;95.40;;;;;;6181495;23;20017;-69
2023/05/20 07:46:11;;;;;;;6.63;3.80;;;15.30;95.30;;;;;;6155402;23;20009;-67
2023/05/20 07:48:37;;;;;;;6.30;4.30;;;15.40;95.30;;;;;;6181824;23;20009;-68
2023/05/20 07:51:03;;;;;;;9.73;3.97;;;15.40;95.40;;;;;;6181307;23;20001;-68
2023/05/20 07:53:28;;;;;;;5.35;3.65;;;15.50;95.30;;;;;;6154487;23;20005;-68
2023/05/20 07:55:55;;;;;;;6.55;4.10;;;15.50;95.10;;;;;;6181730;23;20012;-68
2023/05/20 07:58:21;;;;;;;10.43;3.97;;;15.60;94.90;;;;;;6180359;23;20036;-68
2023/05/20 08:00:47;;;;;;;6.40;3.75;;;15.60;94.90;;;;;;6180564;23;20075;-69
2023/05/20 08:03:13;;;;;;;8.55;3.92;;;15.70;94.80;;;;;;6181262;23;20048;-68
2023/05/20 08:05:40;;;;;;;6.93;3.85;;;15.70;94.80;;;;;;6154323;23;20021;-68
2023/05/20 08:08:06;;;;;;;5.22;3.60;;;15.80;94.60;;;;;;6182019;23;20086;-67
2023/05/20 08:10:31;;;;;;;7.78;4.63;;;15.80;94.30;;;;;;6180890;23;20005;-66
2023/05/20 08:12:57;;;;;;;7.18;3.47;;;15.90;94.20;;;;;;6182262;23;20421;-67
2023/05/20 08:15:23;;;;;;;6.22;3.97;;;16.00;94.30;;;;;;6180807;23;20005;-68
2023/05/20 08:17:48;;;;;;;6.07;3.55;;;16.10;94.30;;;;;;6180121;23;20450;-68
2023/05/20 08:20:14;;;;;;;5.55;3.55;;;16.20;94.10;;;;;;6181067;23;20032;-67
2023/05/20 08:22:39;;;;;;;6.35;4.15;;;16.30;94.00;;;;;;6179213;23;20009;-68
2023/05/20 08:25:09;;;;;;;5.45;3.67;;;16.40;93.90;;;;;;6182023;23;20032;-68
2023/05/20 08:27:36;;;;;;;5.13;3.25;;;16.50;93.70;;;;;;6182067;23;20005;-68
2023/05/20 08:30:07;;;;;;;8.25;4.10;;;16.60;93.50;;;;;;6181295;23;20086;-68
2023/05/20 08:32:32;;;;;;;5.97;3.58;;;16.60;93.40;;;;;;6152583;23;20100;-68
2023/05/20 08:35:00;;;;;;;8.23;4.18;;;16.70;93.30;;;;;;6181445;23;20028;-68
2023/05/20 08:37:26;;;;;;;5.60;3.80;;;16.80;93.50;;;;;;6180130;23;20012;-73
2023/05/20 08:39:52;;;;;;;6.35;4.00;;;16.80;93.10;;;;;;6181961;23;20374;-61
2023/05/20 08:42:22;;;;;;;7.38;4.40;;;16.90;93.10;;;;;;6152963;23;20056;-62
2023/05/20 08:44:52;;;;;;;7.32;3.42;;;16.90;92.80;;;;;;6180848;23;20028;-61
2023/05/20 08:47:21;;;;;;;6.53;3.30;;;17.00;93.00;;;;;;6153204;23;20000;-61
2023/05/20 08:49:48;;;;;;;4.82;3.10;;;17.10;92.60;;;;;;6181060;23;20421;-69
2023/05/20 08:52:16;;;;;;;5.65;3.40;;;17.10;92.50;;;;;;6153654;23;20015;-69
2023/05/20 08:54:48;;;;;;;7.18;3.85;;;17.10;92.60;;;;;;6180760;23;20059;-69
2023/05/20 08:57:14;;;;;;;4.28;3.10;;;17.20;92.40;;;;;;6181034;23;20080;-68
2023/05/20 08:59:44;;;;;;;6.70;3.50;;;17.10;92.10;;;;;;6180644;23;20015;-69
2023/05/20 09:02:10;;;;;;;6.53;4.65;;;17.10;92.10;;;;;;6181963;23;20009;-68
2023/05/20 09:04:36;;;;;;;4.38;3.67;;;17.10;92.10;;;;;;6180250;23;20013;-67
2023/05/20 09:07:02;;;;;;;5.15;3.28;;;17.10;92.10;;;;;;6182053;23;20069;-60
2023/05/20 09:09:29;;;;;;;6.07;3.30;;;17.10;92.20;;;;;;6180450;23;20056;-60
2023/05/20 09:11:54;;;;;;;4.93;3.35;;;17.20;92.10;;;;;;6180182;23;20005;-60
2023/05/20 09:14:20;;;;;;;5.40;3.88;;;17.20;92.20;;;;;;6180413;23;20035;-60
2023/05/20 09:16:47;;;;;;;7.00;3.53;;;17.20;91.90;;;;;;6180523;23;20008;-60
2023/05/20 09:19:13;;;;;;;7.68;3.42;;;17.10;91.90;;;;;;6180876;23;20001;-68
2023/05/20 09:21:40;;;;;;;8.73;3.47;;;17.00;92.00;;;;;;6180742;23;20013;-69
2023/05/20 09:24:06;;;;;;;7.05;3.88;;;17.00;92.00;;;;;;6180597;23;20331;-68
2023/05/20 09:26:32;;;;;;;4.60;3.45;;;16.90;92.10;;;;;;6178967;23;20028;-67
2023/05/20 09:28:59;;;;;;;8.30;4.00;;;16.90;92.10;;;;;;6153808;23;20091;-68
2023/05/20 09:31:32;;;;;;;5.85;3.63;;;16.90;92.20;;;;;;6180592;23;20043;-67
2023/05/20 09:33:59;;;;;;;5.78;4.00;;;17.00;92.40;;;;;;6180710;23;20343;-70
2023/05/20 09:36:28;;;;;;;7.18;3.50;;;17.10;92.40;;;;;;6180211;23;20013;-70
2023/05/20 09:38:58;;;;;;;10.48;4.88;;;17.20;92.30;;;;;;6181383;23;20028;-72
2023/05/20 09:41:31;;;;;;;7.20;4.82;;;17.30;92.20;;;;;;6181800;23;20048;-71
2023/05/20 09:43:57;;;;;;;7.00;4.95;;;17.40;92.00;;;;;;6154108;23;20506;-71
2023/05/20 09:46:24;;;;;;;8.43;5.55;;;17.40;91.90;;;;;;6152603;23;20325;-71
2023/05/20 09:48:50;;;;;;;9.07;5.22;;;17.50;91.80;;;;;;6181147;23;20013;-70
2023/05/20 09:51:16;;;;;;;8.05;4.72;;;17.50;91.80;;;;;;6179686;23;20312;-70
2023/05/20 09:53:42;;;;;;;8.07;5.20;;;17.60;91.70;;;;;;6179506;23;20325;-70
2023/05/20 09:56:08;;;;;;;9.07;4.78;;;17.70;91.60;;;;;;6179514;23;20017;-71
2023/05/20 09:58:35;;;;;;;7.20;4.43;;;17.70;91.40;;;;;;6179949;23;20013;-69
2023/05/20 10:01:01;;;;;;;8.32;5.30;;;17.70;91.40;;;;;;6153862;23;20012;-71
2023/05/20 10:03:27;;;;;;;7.38;4.95;;;17.70;91.30;;;;;;6179034;23;20012;-62
2023/05/20 10:06:08;;;;;;;9.60;5.50;;;17.60;91.30;;;;;;6178740;23;20004;-61
2023/05/20 10:08:55;;;;;;;7.97;5.15;;;17.60;91.40;;;;;;6180260;23;20008;-61
2023/05/20 10:11:26;;;;;;;8.63;5.30;;;17.60;91.40;;;;;;6180793;23;20017;-60
2023/05/20 10:14:23;;;;;;;10.77;5.50;;;17.60;91.40;;;;;;6181232;23;20124;-61
2023/05/20 10:17:01;;;;;;;9.88;6.10;;;17.60;91.30;;;;;;6178760;23;20012;-61
2023/05/20 10:19:32;;;;;;;9.35;5.50;;;17.50;91.30;;;;;;6181206;23;20036;-60
2023/05/20 10:22:01;;;;;;;9.18;5.15;;;17.50;91.40;;;;;;6179893;23;20005;-62
2023/05/20 10:24:34;;;;;;;8.55;5.93;;;17.60;91.50;;;;;;6180866;23;20017;-61
2023/05/20 10:27:12;;;;;;;8.93;6.32;;;17.60;91.50;;;;;;6178893;23;20009;-61
2023/05/20 10:29:49;;;;;;;9.18;5.43;;;17.60;91.30;;;;;;6154171;23;20523;-60
2023/05/20 10:32:26;;;;;;;6.35;4.82;;;17.70;91.30;;;;;;6181533;23;20056;-70
2023/05/20 10:34:51;;;;;;;7.18;5.25;;;17.80;91.30;;;;;;6180496;23;20009;-71
2023/05/20 10:37:24;;;;;;;7.35;4.47;;;17.80;91.20;;;;;;6180974;23;20455;-71
2023/05/20 10:39:49;;;;;;;7.13;5.00;;;18.00;91.00;;;;;;6181433;23;20019;-70
2023/05/20 10:42:15;;;;;;;10.25;5.45;;;17.90;90.80;;;;;;6182621;23;20438;-70
2023/05/20 10:44:42;;;;;;;8.65;5.07;;;17.80;90.60;;;;;;6181393;23;20478;-63
2023/05/20 10:47:08;;;;;;;8.57;5.85;;;17.90;90.70;;;;;;6182102;23;20437;-61
2023/05/20 10:49:37;;;;;;;6.38;4.65;;;18.00;90.80;;;;;;6181907;23;20016;-62
2023/05/20 10:52:03;;;;;;;7.88;5.50;;;18.10;90.60;;;;;;6181688;23;20080;-61
2023/05/20 10:54:35;;;;;;;7.38;4.82;;;18.20;90.60;;;;;;6154925;23;20044;-61
2023/05/20 10:57:06;;;;;;;9.15;5.28;;;18.20;90.50;;;;;;6182496;23;20526;-61
2023/05/20 10:59:32;;;;;;;8.23;4.90;;;18.30;90.70;;;;;;6155722;23;20461;-61
2023/05/20 11:02:00;;;;;;;7.93;5.70;;;18.40;90.40;;;;;;6183357;23;20005;-61
2023/05/20 11:04:27;;;;;;;7.45;5.35;;;18.40;90.20;;;;;;6154630;23;20434;-60
2023/05/20 11:06:54;;;;;;;9.13;5.95;;;18.50;90.30;;;;;;6181645;23;20005;-61
2023/05/20 11:09:21;;;;;;;9.70;5.82;;;18.50;90.20;;;;;;6182809;23;20013;-61
2023/05/20 11:11:47;;;;;;;10.05;5.45;;;18.60;90.10;;;;;;6182120;23;20031;-71
2023/05/20 11:14:13;;;;;;;7.82;4.95;;;18.70;90.00;;;;;;6182532;23;20017;-63
2023/05/20 11:16:40;;;;;;;6.85;4.78;;;18.80;90.00;;;;;;6180052;23;20004;-61
2023/05/20 11:19:07;;;;;;;8.73;5.57;;;18.90;90.00;;;;;;6182680;23;20466;-61
2023/05/20 11:21:33;;;;;;;8.98;5.30;;;19.00;89.70;;;;;;6181853;23;20005;-61
2023/05/20 11:23:59;;;;;;;9.15;5.63;;;19.10;89.30;;;;;;6181648;23;20024;-61
2023/05/20 11:26:24;;;;;;;8.23;5.32;;;19.10;89.00;;;;;;6181040;23;20450;-61
2023/05/20 11:28:50;;;;;;;10.00;5.88;;;19.20;89.20;;;;;;6181157;23;20012;-60
2023/05/20 11:31:17;;;;;;;8.13;5.20;;;19.30;89.10;;;;;;6181660;23;20008;-61
2023/05/20 11:33:43;;;;;;;8.52;5.07;;;19.40;88.80;;;;;;6179342;23;20008;-61
2023/05/20 11:36:10;;;;;;;10.20;5.00;;;19.50;88.60;;;;;;6178696;23;20051;-60
2023/05/20 11:38:36;;;;;;;7.00;4.70;;;19.60;88.60;;;;;;6181934;23;20467;-60
2023/05/20 11:41:01;;;;;;;9.60;5.55;;;19.80;88.30;;;;;;6181869;23;20369;-61
2023/05/20 11:43:27;;;;;;;8.43;4.68;;;19.80;87.30;;;;;;6180692;23;20072;-60
2023/05/20 11:46:00;;;;;;;7.57;4.43;;;19.80;87.70;;;;;;6182098;23;20005;-61
2023/05/20 11:48:26;;;;;;;7.35;5.28;;;19.90;87.50;;;;;;6181617;23;20032;-62
2023/05/20 11:50:53;;;;;;;7.93;5.22;;;19.90;86.70;;;;;;6182180;23;20005;-71
2023/05/20 11:53:21;;;;;;;8.45;5.35;;;19.80;86.80;;;;;;6181795;23;20376;-71
2023/05/20 11:55:50;;;;;;;7.35;5.10;;;19.90;86.80;;;;;;6181525;23;20005;-70
2023/05/20 11:58:28;;;;;;;8.45;5.53;;;20.00;86.80;;;;;;6181210;23;20005;-69
2023/05/20 12:00:53;;;;;;;8.20;5.15;;;20.10;86.60;;;;;;6182747;23;20009;-69
2023/05/20 12:03:19;;;;;;;8.65;5.50;;;20.20;86.30;;;;;;6182457;23;20312;-71
2023/05/20 12:05:47;;;;;;;11.73;4.97;;;20.20;85.80;;;;;;6182664;23;20013;-62
2023/05/20 12:08:13;;;;;;;8.88;5.47;;;20.20;86.00;;;;;;6182300;23;20116;-62
2023/05/20 12:10:38;;;;;;;7.55;5.28;;;20.30;85.70;;;;;;6155388;23;20005;-61
2023/05/20 12:13:07;;;;;;;8.27;4.72;;;20.30;85.30;;;;;;6179324;23;20016;-61
2023/05/20 12:15:36;;;;;;;8.23;5.30;;;20.20;85.10;;;;;;6180508;23;20004;-60
2023/05/20 12:18:02;;;;;;;8.10;4.97;;;20.20;85.50;;;;;;6181585;23;20047;-68
2023/05/20 12:20:29;;;;;;;8.38;5.78;;;20.20;85.50;;;;;;6181031;23;20001;-68
2023/05/20 12:22:55;;;;;;;7.32;4.35;;;20.20;85.50;;;;;;6179270;23;20013;-69
2023/05/20 12:25:22;;;;;;;8.95;5.18;;;20.20;85.10;;;;;;6181627;23;20083;-69
2023/05/20 12:27:49;;;;;;;8.20;5.90;;;20.10;84.60;;;;;;6181342;23;20009;-69
2023/05/20 12:30:19;;;;;;;10.18;5.93;;;19.90;84.70;;;;;;6180827;23;20005;-69
2023/05/20 12:32:46;;;;;;;7.63;5.47;;;19.70;85.10;;;;;;6180405;23;20382;-69
2023/05/20 12:35:12;;;;;;;7.32;4.97;;;19.70;85.80;;;;;;6181675;23;20081;-61
2023/05/20 12:37:42;;;;;;;8.65;5.38;;;19.70;85.50;;;;;;6181128;23;20012;-60
2023/05/20 12:40:10;;;;;;;8.50;5.60;;;19.80;85.80;;;;;;6180823;23;20001;-60
2023/05/20 12:42:37;;;;;;;8.32;5.10;;;19.90;85.90;;;;;;6180746;23;20047;-61